Time;durP1;ratioP1;P1;durP2;ratioP2;P2;SDS_P1;SDS_P2;PMS_P1;PMS_P2;Temp;Humidity;BMP_temperature;BMP_pressure;BME280_temperature;BME280_humidity;BME280_pressure;Samples;Min_cycle;Max_cycle;Signal;HPM_P1;HPM_P2
2022/06/16 00:01:15;;;;;;;7.32;5.28;;;;;;;17.76;61.23;99731.56;4971531;28;20460;-69
2022/06/16 00:03:41;;;;;;;6.90;4.55;;;;;;;17.71;61.20;99731.94;4971649;28;20098;-69
2022/06/16 00:06:09;;;;;;;8.90;4.57;;;;;;;17.71;61.42;99742.59;4970825;28;20093;-70
2022/06/16 00:08:36;;;;;;;10.52;4.47;;;;;;;17.74;61.24;99752.16;4971619;28;20046;-70
2022/06/16 00:11:17;;;;;;;9.43;6.07;;;;;;;17.83;61.04;99753.28;4971745;28;20054;-70
2022/06/16 00:13:45;;;;;;;19.80;5.85;;;;;;;17.84;60.36;99750.50;4971714;28;20137;-70
2022/06/16 00:16:12;;;;;;;10.27;5.38;;;;;;;17.91;59.56;99749.03;4970618;28;20050;-70
2022/06/16 00:18:39;;;;;;;7.07;3.80;;;;;;;17.99;58.05;99753.75;4971303;28;20459;-71
2022/06/16 00:21:07;;;;;;;7.75;4.45;;;;;;;18.08;56.81;99744.16;4971319;28;20097;-71
2022/06/16 00:23:35;;;;;;;9.88;4.93;;;;;;;18.02;58.15;99749.03;4970310;28;20046;-71
2022/06/16 00:26:02;;;;;;;12.18;5.00;;;;;;;17.98;57.82;99749.38;4970942;28;20126;-71
2022/06/16 00:28:29;;;;;;;12.40;4.47;;;;;;;17.99;58.40;99756.41;4971152;28;20057;-71
2022/06/16 00:31:01;;;;;;;9.45;4.72;;;;;;;17.96;57.85;99749.50;4970901;28;20149;-71
2022/06/16 00:33:28;;;;;;;8.15;3.97;;;;;;;17.97;58.33;99745.03;4970672;28;20053;-71
2022/06/16 00:35:55;;;;;;;6.20;4.60;;;;;;;17.95;58.04;99742.47;4970654;28;20042;-71
2022/06/16 00:38:23;;;;;;;7.80;4.32;;;;;;;17.96;58.18;99749.50;4985753;28;20043;-71
2022/06/16 00:40:51;;;;;;;9.60;4.95;;;;;;;17.92;58.07;99737.41;4990370;28;20466;-71
2022/06/16 00:43:18;;;;;;;5.90;4.50;;;;;;;17.87;58.30;99742.25;4988693;28;20498;-72
2022/06/16 00:45:53;;;;;;;10.05;4.95;;;;;;;17.83;58.90;99742.63;4991959;28;20074;-70
2022/06/16 00:48:23;;;;;;;8.15;5.30;;;;;;;17.82;58.67;99747.13;5000973;28;20478;-71
2022/06/16 00:50:54;;;;;;;8.32;5.90;;;;;;;17.81;58.93;99746.25;4996928;28;20141;-71
2022/06/16 00:53:21;;;;;;;10.18;4.72;;;;;;;17.78;59.60;99756.28;4991829;28;20073;-70
2022/06/16 00:55:49;;;;;;;9.43;4.60;;;;;;;17.81;59.10;99748.91;4991133;28;20078;-71
2022/06/16 00:58:18;;;;;;;8.20;4.93;;;;;;;17.75;59.55;99757.38;4990464;28;20088;-70
2022/06/16 01:00:46;;;;;;;9.88;5.05;;;;;;;17.72;60.34;99746.09;4968817;28;20621;-71
2022/06/16 01:03:13;;;;;;;7.97;5.10;;;;;;;17.70;60.49;99758.72;4983712;28;20568;-71
2022/06/16 01:05:39;;;;;;;8.50;5.20;;;;;;;17.72;60.28;99762.09;4989768;28;20498;-70
2022/06/16 01:08:08;;;;;;;14.02;5.10;;;;;;;17.72;59.36;99762.09;4989664;28;20042;-71
2022/06/16 01:10:43;;;;;;;13.73;5.53;;;;;;;17.66;60.40;99762.59;4990259;28;20149;-71
2022/06/16 01:16:11;;;;;;;6.35;3.88;;;;;;;17.64;59.67;99769.88;4989304;28;20513;-70
2022/06/16 01:18:47;;;;;;;6.10;3.92;;;;;;;17.59;59.79;99768.41;4989902;28;20143;-70
2022/06/16 01:21:21;;;;;;;7.97;4.68;;;;;;;17.55;60.22;99774.13;4989995;28;20060;-70
2022/06/16 01:24:09;;;;;;;9.55;4.72;;;;;;;17.50;60.28;99768.28;4989766;28;20126;-70
2022/06/16 01:26:55;;;;;;;5.88;4.78;;;;;;;17.42;60.76;99768.03;4987265;28;20039;-70
2022/06/16 01:29:30;;;;;;;6.67;4.40;;;;;;;17.39;60.53;99769.13;4989793;28;20461;-70
2022/06/16 01:32:00;;;;;;;;;;;;;;;17.34;60.98;99758.81;4986401;28;20369;-70
2022/06/16 01:34:35;;;;;;;7.50;5.20;;;;;;;17.36;60.16;99766.72;4989341;28;20012;-70
2022/06/16 01:37:10;;;;;;;7.20;5.00;;;;;;;17.37;60.83;99774.56;4989699;28;20047;-70
2022/06/16 01:39:41;;;;;;;9.52;5.05;;;;;;;17.35;61.04;99773.84;4989293;28;20120;-70
2022/06/16 01:42:13;;;;;;;5.05;4.15;;;;;;;17.36;61.16;99778.22;4973077;28;20533;-70
2022/06/16 01:44:46;;;;;;;7.60;4.82;;;;;;;17.35;61.21;99776.53;4989262;28;20050;-70
2022/06/16 01:47:17;;;;;;;6.60;3.85;;;;;;;17.43;60.54;99769.75;4989128;28;20133;-70
2022/06/16 01:49:48;;;;;;;6.57;5.18;;;;;;;17.47;60.83;99771.19;4989938;28;20447;-70
2022/06/16 01:52:22;;;;;;;9.55;4.63;;;;;;;17.47;60.47;99773.84;4985846;28;20077;-70
2022/06/16 01:54:55;;;;;;;8.57;4.20;;;;;;;17.50;59.98;99779.81;4990110;28;20777;-70
2022/06/16 01:57:28;;;;;;;7.35;4.65;;;;;;;17.56;59.42;99783.81;4969804;28;20070;-70
2022/06/16 02:00:01;;;;;;;10.80;5.28;;;;;;;17.52;59.87;99788.53;4974264;28;20070;-71
2022/06/16 02:02:31;;;;;;;8.82;4.93;;;;;;;17.56;59.92;99797.13;4969861;28;20419;-70
2022/06/16 02:05:03;;;;;;;6.20;4.80;;;;;;;17.56;59.80;99799.78;4970080;28;20043;-70
2022/06/16 02:07:35;;;;;;;7.05;4.85;;;;;;;17.55;59.12;99796.28;4968902;28;20127;-70
2022/06/16 02:10:09;;;;;;;8.45;4.15;;;;;;;17.59;58.82;99799.56;4969776;28;20452;-70
2022/06/16 02:12:56;;;;;;;9.77;4.95;;;;;;;17.59;59.50;99805.72;4969678;28;20057;-70
2022/06/16 02:15:32;;;;;;;8.63;4.88;;;;;;;17.60;59.25;99801.28;4974305;28;20054;-70
2022/06/16 02:18:00;;;;;;;7.50;5.75;;;;;;;17.49;60.18;99803.91;4973200;28;20047;-70
2022/06/16 02:20:47;;;;;;;9.85;5.82;;;;;;;17.40;60.25;99797.50;4969889;28;20067;-70
2022/06/16 02:23:14;;;;;;;8.55;6.03;;;;;;;17.35;61.18;99795.19;4970020;28;20384;-70
2022/06/16 02:25:41;;;;;;;9.13;4.55;;;;;;;17.26;61.43;99795.88;4969339;28;20097;-70
2022/06/16 02:28:08;;;;;;;10.43;4.63;;;;;;;17.21;61.67;99792.72;4969392;28;20515;-70
2022/06/16 02:30:48;;;;;;;8.73;4.82;;;;;;;17.11;62.33;99802.38;4969637;28;20067;-71
2022/06/16 02:33:21;;;;;;;9.10;5.03;;;;;;;17.09;61.52;99802.50;4969994;28;20058;-70
2022/06/16 02:35:54;;;;;;;9.60;5.53;;;;;;;17.03;62.11;99802.09;4967383;28;20414;-71
2022/06/16 02:38:34;;;;;;;12.25;5.75;;;;;;;16.96;62.29;99796.41;4979756;28;20068;-70
2022/06/16 02:41:15;;;;;;;7.40;4.85;;;;;;;16.89;62.56;99803.16;4950898;28;20039;-70
2022/06/16 02:43:51;;;;;;;12.43;6.00;;;;;;;16.77;62.95;99791.59;4963137;28;20539;-70
2022/06/16 02:46:34;;;;;;;12.85;5.07;;;;;;;16.71;63.38;99790.22;4970167;28;20093;-71
2022/06/16 02:49:06;;;;;;;12.65;5.55;;;;;;;16.63;63.74;99795.25;4973480;28;20039;-70
2022/06/16 02:51:41;;;;;;;11.02;6.15;;;;;;;16.54;64.04;99790.63;4972976;28;20668;-70
2022/06/16 02:54:20;;;;;;;7.45;4.68;;;;;;;16.49;63.91;99788.31;4972981;28;20050;-70
2022/06/16 02:56:54;;;;;;;7.57;4.80;;;;;;;16.49;64.27;99798.09;4972280;28;20101;-69
2022/06/16 02:59:25;;;;;;;11.25;5.43;;;;;;;16.44;64.31;99805.56;4973443;28;20051;-70
2022/06/16 03:02:01;;;;;;;7.93;4.72;;;;;;;16.39;64.28;99821.88;4972922;28;20129;-70
2022/06/16 03:04:34;;;;;;;12.40;5.47;;;;;;;16.36;64.63;99811.44;4972605;28;20047;-70
2022/06/16 03:07:01;;;;;;;11.00;5.43;;;;;;;16.29;65.33;99811.06;4971904;28;20050;-70
2022/06/16 03:09:27;;;;;;;7.93;4.70;;;;;;;16.23;65.14;99821.28;4972883;28;20134;-70
2022/06/16 03:11:54;;;;;;;5.65;4.65;;;;;;;16.19;65.22;99827.78;4973076;28;20042;-69
2022/06/16 03:14:21;;;;;;;11.95;6.75;;;;;;;16.14;65.58;99836.09;4992342;28;20049;-69
2022/06/16 03:16:47;;;;;;;9.18;5.20;;;;;;;16.12;65.52;99837.16;4991485;28;20412;-69
2022/06/16 03:19:17;;;;;;;9.90;5.82;;;;;;;16.13;65.15;99836.22;4991990;28;20804;-69
2022/06/16 03:21:44;;;;;;;8.65;5.10;;;;;;;16.09;65.45;99833.75;4992013;28;20062;-69
2022/06/16 03:24:11;;;;;;;18.30;5.55;;;;;;;16.12;65.10;99832.72;4983344;28;20057;-69
2022/06/16 03:26:37;;;;;;;8.20;5.60;;;;;;;16.11;65.26;99836.31;4971799;28;20142;-69
2022/06/16 03:29:04;;;;;;;10.20;5.78;;;;;;;16.06;65.49;99838.44;4972489;28;20057;-69
2022/06/16 03:31:30;;;;;;;7.60;5.35;;;;;;;16.05;65.68;99850.06;4974350;28;20047;-69
2022/06/16 03:33:57;;;;;;;8.75;4.85;;;;;;;16.09;65.59;99844.38;4970771;28;20495;-70
2022/06/16 03:36:25;;;;;;;8.85;5.35;;;;;;;16.10;65.53;99851.44;4972437;28;20127;-70
2022/06/16 03:38:52;;;;;;;7.45;5.20;;;;;;;16.02;65.87;99856.44;4973033;28;20047;-70
2022/06/16 03:41:18;;;;;;;10.85;6.05;;;;;;;16.01;65.69;99857.38;4972416;28;20054;-70
2022/06/16 03:43:45;;;;;;;6.70;4.75;;;;;;;15.98;65.92;99854.97;4972434;28;20129;-71
2022/06/16 03:46:12;;;;;;;10.48;5.72;;;;;;;15.99;65.94;99861.13;4971919;28;20102;-70
2022/06/16 03:48:39;;;;;;;7.45;5.40;;;;;;;15.99;66.11;99850.47;4972620;28;20119;-69
2022/06/16 03:51:07;;;;;;;9.25;5.43;;;;;;;15.85;66.48;99857.63;4973494;28;20548;-69
2022/06/16 03:53:35;;;;;;;7.03;6.03;;;;;;;15.73;66.86;99855.00;4975068;28;20070;-69
2022/06/16 03:56:02;;;;;;;8.65;5.88;;;;;;;15.63;67.21;99866.22;4973222;28;20513;-69
2022/06/16 03:58:28;;;;;;;7.25;5.53;;;;;;;15.55;67.70;99875.66;4972281;28;20569;-69
2022/06/16 04:00:55;;;;;;;9.18;6.15;;;;;;;15.49;67.92;99879.59;4972320;28;20046;-69
2022/06/16 04:06:05;;;;;;;11.27;5.22;;;;;;;15.66;66.94;99876.63;4966626;28;20051;-69
2022/06/16 04:08:32;;;;;;;8.02;5.88;;;;;;;15.75;66.07;99887.59;4973267;28;20074;-69
2022/06/16 04:11:26;;;;;;;16.50;5.88;;;;;;;15.83;65.93;99885.28;4973768;28;20300;-69
2022/06/16 04:13:49;;;;;;;7.72;6.03;;;;;;;15.84;66.07;99893.13;4971950;28;20043;-70
2022/06/16 04:16:16;;;;;;;8.32;5.80;;;;;;;15.89;65.09;99893.66;4971117;28;20536;-70
2022/06/16 04:18:43;;;;;;;12.30;5.75;;;;;;;15.97;65.16;99892.28;4970894;28;20428;-70
2022/06/16 04:21:10;;;;;;;9.18;6.32;;;;;;;16.03;64.30;99897.19;4971459;28;20057;-69
2022/06/16 04:23:37;;;;;;;7.82;6.25;;;;;;;16.09;63.83;99900.25;4971558;28;20133;-69
2022/06/16 04:26:06;;;;;;;13.10;6.07;;;;;;;16.13;64.79;99905.38;4971190;28;20049;-70
2022/06/16 04:28:33;;;;;;;11.40;5.20;;;;;;;16.09;64.85;99905.56;4969702;28;20142;-70
2022/06/16 04:31:00;;;;;;;10.38;6.30;;;;;;;16.08;65.19;99903.03;4983377;28;20129;-69
2022/06/16 04:33:27;;;;;;;11.23;6.22;;;;;;;16.11;64.28;99913.44;4974876;28;20051;-69
2022/06/16 04:35:55;;;;;;;9.25;6.68;;;;;;;16.18;63.56;99914.72;4971413;28;20046;-69
2022/06/16 04:38:21;;;;;;;9.82;6.03;;;;;;;16.26;63.35;99916.84;4971880;28;20134;-70
2022/06/16 04:40:48;;;;;;;9.38;6.07;;;;;;;16.35;62.83;99923.31;4972007;28;20058;-70
2022/06/16 04:43:17;;;;;;;10.00;6.57;;;;;;;16.40;62.66;99924.69;4971323;28;20497;-69
2022/06/16 04:45:44;;;;;;;13.85;6.75;;;;;;;16.44;62.68;99919.97;4970685;28;20063;-70
2022/06/16 04:48:12;;;;;;;13.43;6.18;;;;;;;16.45;62.74;99925.22;4969867;28;20430;-71
2022/06/16 04:50:39;;;;;;;12.57;6.63;;;;;;;16.49;61.78;99913.41;4968566;28;20051;-70
2022/06/16 04:53:06;;;;;;;9.98;5.85;;;;;;;16.49;61.30;99908.06;4951366;28;20107;-70
2022/06/16 04:55:32;;;;;;;13.18;7.78;;;;;;;16.45;61.23;99913.72;4951257;28;20126;-70
2022/06/16 04:57:59;;;;;;;10.38;6.28;;;;;;;16.45;61.22;99919.88;4950667;28;20047;-70
2022/06/16 05:00:27;;;;;;;11.25;6.57;;;;;;;16.47;61.46;99919.78;4951675;28;20562;-71
2022/06/16 05:02:54;;;;;;;11.18;5.80;;;;;;;16.45;61.08;99924.38;4951673;28;20123;-71
2022/06/16 05:05:20;;;;;;;16.73;7.63;;;;;;;16.44;60.18;99917.31;4951349;28;20126;-71
2022/06/16 05:07:47;;;;;;;10.77;6.70;;;;;;;16.40;61.06;99922.03;4951077;28;20043;-71
2022/06/16 05:10:14;;;;;;;12.05;7.40;;;;;;;16.45;60.94;99943.00;4966535;28;20042;-70
2022/06/16 05:12:40;;;;;;;11.00;6.78;;;;;;;16.46;60.00;99945.53;4963250;28;20134;-70
2022/06/16 05:15:08;;;;;;;9.82;6.43;;;;;;;16.54;60.30;99947.66;4967116;28;20050;-70
2022/06/16 05:17:37;;;;;;;10.43;7.20;;;;;;;16.61;59.63;99948.06;4989326;28;20061;-70
2022/06/16 05:20:04;;;;;;;11.88;8.00;;;;;;;16.57;59.71;99952.75;4983543;28;20050;-69
2022/06/16 05:22:30;;;;;;;18.83;7.45;;;;;;;16.55;59.66;99964.47;4970272;28;20544;-69
2022/06/16 05:24:57;;;;;;;11.07;6.93;;;;;;;16.53;60.04;99959.25;4975187;28;20518;-68
2022/06/16 05:27:23;;;;;;;9.95;6.55;;;;;;;16.68;59.92;99965.28;4968538;28;20043;-69
2022/06/16 05:29:50;;;;;;;13.95;7.13;;;;;;;16.69;59.51;99969.69;4970946;28;20706;-69
2022/06/16 05:32:17;;;;;;;18.10;5.85;;;;;;;16.76;58.81;99973.59;4968667;28;20055;-69
2022/06/16 05:34:45;;;;;;;9.55;6.30;;;;;;;16.91;58.49;99977.84;4970975;28;20070;-69
2022/06/16 05:37:12;;;;;;;16.45;7.45;;;;;;;17.03;57.46;99972.56;4969447;28;20050;-69
2022/06/16 05:39:38;;;;;;;10.82;6.90;;;;;;;17.04;57.08;99980.47;4970185;28;20043;-69
2022/06/16 05:42:08;;;;;;;11.15;6.90;;;;;;;17.05;56.62;99984.81;4969832;28;20046;-69
2022/06/16 05:44:34;;;;;;;9.60;6.32;;;;;;;17.10;56.75;99987.16;4969826;28;20066;-69
2022/06/16 05:47:01;;;;;;;10.85;6.95;;;;;;;17.19;56.27;99993.63;4969750;28;20527;-69
2022/06/16 05:49:28;;;;;;;9.60;6.82;;;;;;;17.28;55.73;100003.63;4970707;28;20519;-69
2022/06/16 05:51:56;;;;;;;10.65;7.30;;;;;;;17.42;56.05;100011.41;4970052;28;20469;-69
2022/06/16 05:54:23;;;;;;;10.25;6.93;;;;;;;17.80;54.98;99997.06;4970532;28;20521;-69
2022/06/16 05:56:50;;;;;;;12.07;5.70;;;;;;;18.01;54.86;100005.25;4970369;28;20066;-70
2022/06/16 05:59:16;;;;;;;9.02;6.40;;;;;;;17.94;54.46;99996.88;4973156;28;20050;-70
2022/06/16 06:01:43;;;;;;;13.98;5.90;;;;;;;17.93;54.55;99995.16;4974862;28;20053;-70
2022/06/16 06:04:10;;;;;;;13.07;6.47;;;;;;;18.02;53.55;99990.94;4986545;28;20073;-70
2022/06/16 06:06:37;;;;;;;11.32;6.15;;;;;;;17.92;52.74;99993.47;4985607;28;20118;-71
2022/06/16 06:17:21;;;;;;;8.80;5.47;;;;;;;17.69;52.45;100007.66;4986111;28;20102;-69
2022/06/16 06:19:48;;;;;;;9.82;5.82;;;;;;;17.71;52.47;100011.06;4980180;28;20270;-71
2022/06/16 06:22:19;;;;;;;7.88;5.43;;;;;;;17.81;52.50;100010.28;4974274;28;20074;-70
2022/06/16 06:24:50;;;;;;;12.50;6.55;;;;;;;17.89;52.72;100007.03;4973441;28;20055;-70
2022/06/16 06:27:20;;;;;;;12.13;5.80;;;;;;;17.88;51.97;100023.16;4973053;28;20053;-70
2022/06/16 06:29:49;;;;;;;6.25;4.65;;;;;;;17.91;52.40;100022.91;4974247;28;20042;-70
2022/06/16 06:32:19;;;;;;;7.57;6.20;;;;;;;17.92;51.79;100028.16;4973814;28;20153;-71
2022/06/16 06:34:46;;;;;;;8.27;5.07;;;;;;;18.05;51.63;100025.38;4973653;28;20060;-71
2022/06/16 06:37:14;;;;;;;7.40;4.57;;;;;;;18.15;50.78;100026.38;4972766;28;20057;-70
2022/06/16 06:39:41;;;;;;;7.18;5.00;;;;;;;18.33;54.50;100031.25;4973782;28;20042;-47
2022/06/16 06:42:09;;;;;;;6.35;4.43;;;;;;;18.83;51.43;100027.31;4973534;28;20061;-50
2022/06/16 06:44:36;;;;;;;8.50;4.85;;;;;;;19.14;49.20;100032.84;4974294;28;20050;-45
2022/06/16 06:47:03;;;;;;;8.15;5.32;;;;;;;19.27;48.12;100030.91;4974450;28;20062;-47
2022/06/16 06:49:30;;;;;;;9.27;5.22;;;;;;;19.30;47.93;100029.78;4993736;28;20051;-48
2022/06/16 06:51:57;;;;;;;11.65;5.68;;;;;;;19.33;47.86;100037.56;4980807;28;20046;-50
2022/06/16 06:54:23;;;;;;;9.63;5.40;;;;;;;19.31;48.52;100034.16;4973094;28;20049;-51
2022/06/16 06:56:52;;;;;;;9.63;4.88;;;;;;;19.53;47.38;100031.41;4972745;28;20039;-46
2022/06/16 06:59:21;;;;;;;14.73;6.10;;;;;;;19.52;47.44;100039.59;4991530;28;20058;-46
2022/06/16 07:01:49;;;;;;;8.23;4.93;;;;;;;19.56;46.83;100038.31;4992662;28;20452;-48
2022/06/16 07:04:15;;;;;;;8.20;5.10;;;;;;;19.65;46.83;100042.09;4992473;28;20065;-49
2022/06/16 07:06:42;;;;;;;7.78;3.95;;;;;;;19.67;46.30;100042.81;4991915;28;20053;-52
2022/06/16 07:09:11;;;;;;;10.75;4.22;;;;;;;19.88;45.46;100048.22;4992417;28;20060;-52
2022/06/16 07:11:40;;;;;;;7.63;4.63;;;;;;;19.92;45.08;100055.00;4992206;28;20045;-52
2022/06/16 07:14:06;;;;;;;11.82;5.18;;;;;;;19.67;45.09;100059.72;4991897;28;20050;-49
2022/06/16 07:16:35;;;;;;;10.45;4.55;;;;;;;19.56;45.54;100058.88;4991504;28;20070;-53
2022/06/16 07:19:01;;;;;;;7.53;4.82;;;;;;;19.70;46.48;100059.47;4991360;28;20051;-52
2022/06/16 07:21:28;;;;;;;11.77;5.80;;;;;;;19.98;45.39;100062.50;4955509;28;20055;-52
2022/06/16 07:23:55;;;;;;;6.45;4.05;;;;;;;20.23;45.54;100063.97;4967781;28;20144;-49
2022/06/16 07:26:22;;;;;;;10.40;4.07;;;;;;;20.31;44.79;100069.53;4966421;28;20062;-51
2022/06/16 07:28:50;;;;;;;6.68;4.25;;;;;;;20.29;44.35;100073.31;4967812;28;20050;-53
2022/06/16 07:31:16;;;;;;;13.70;5.25;;;;;;;20.29;44.04;100082.19;4967739;28;20051;-53
2022/06/16 07:33:44;;;;;;;11.65;5.53;;;;;;;20.19;45.32;100075.91;4967497;28;20051;-49
2022/06/16 07:36:11;;;;;;;7.38;3.85;;;;;;;20.60;44.43;100079.59;4967283;28;20058;-53
2022/06/16 07:38:38;;;;;;;7.72;5.25;;;;;;;20.59;44.14;100094.78;4967568;28;20050;-53
2022/06/16 07:43:49;;;;;;;9.30;5.15;;;;;;;20.83;43.57;100091.00;4967252;28;20053;-70
2022/06/16 07:46:16;;;;;;;8.85;4.45;;;;;;;20.89;43.78;100097.63;4966636;28;20059;-71
2022/06/16 07:48:44;;;;;;;6.65;4.60;;;;;;;21.02;43.35;100095.59;4966914;28;20130;-72
2022/06/16 07:51:11;;;;;;;6.95;5.05;;;;;;;20.82;43.37;100102.66;4966700;28;20058;-72
2022/06/16 07:53:37;;;;;;;10.18;4.70;;;;;;;21.02;43.90;100106.31;4966901;28;20388;-72
2022/06/16 07:56:04;;;;;;;8.05;4.45;;;;;;;21.10;43.34;100114.53;4966838;28;20051;-71
2022/06/16 07:58:32;;;;;;;6.90;3.63;;;;;;;21.18;43.27;100112.00;4967344;28;20070;-72
2022/06/16 08:00:59;;;;;;;11.75;5.45;;;;;;;21.02;42.51;100125.06;4967251;28;20058;-71
2022/06/16 08:03:28;;;;;;;7.40;4.75;;;;;;;20.87;43.33;100118.34;4971178;28;20133;-72
2022/06/16 08:05:58;;;;;;;8.43;4.72;;;;;;;20.97;42.91;100121.94;4985728;28;20662;-72
2022/06/16 08:08:26;;;;;;;10.77;5.05;;;;;;;21.07;43.00;100121.97;4986026;28;20133;-71
2022/06/16 08:10:54;;;;;;;13.63;6.13;;;;;;;20.78;43.32;100126.22;4986771;28;20058;-72
2022/06/16 08:13:22;;;;;;;11.57;5.35;;;;;;;20.73;43.49;100125.78;4980214;28;20502;-70
2022/06/16 08:15:50;;;;;;;8.68;5.05;;;;;;;20.73;43.88;100122.25;4975160;28;20470;-70
2022/06/16 08:18:20;;;;;;;8.80;4.43;;;;;;;20.85;43.80;100118.50;4958043;28;20074;-71
2022/06/16 08:20:47;;;;;;;11.73;5.13;;;;;;;21.12;43.54;100119.75;4966839;28;20062;-71
2022/06/16 08:23:16;;;;;;;9.98;6.22;;;;;;;21.25;43.18;100119.53;4961756;28;20058;-71
2022/06/16 08:25:44;;;;;;;7.30;4.45;;;;;;;21.28;43.20;100117.41;4959176;28;20050;-71
2022/06/16 08:28:11;;;;;;;7.95;3.85;;;;;;;21.41;43.13;100119.88;4963047;28;20502;-70
2022/06/16 08:30:44;;;;;;;5.80;4.47;;;;;;;21.54;42.62;100116.94;4986429;28;20069;-70
2022/06/16 08:33:13;;;;;;;6.85;3.97;;;;;;;21.49;43.36;100124.56;4985191;28;20061;-71
2022/06/16 08:35:41;;;;;;;11.02;4.57;;;;;;;21.63;42.69;100119.66;4983458;28;20046;-71
2022/06/16 08:38:08;;;;;;;5.43;4.18;;;;;;;21.45;41.87;100115.94;4984897;28;20600;-71
2022/06/16 08:40:43;;;;;;;9.18;4.78;;;;;;;21.16;42.77;100124.69;4985958;28;20053;-72
2022/06/16 08:43:23;;;;;;;7.28;3.60;;;;;;;21.28;43.22;100127.28;4984867;28;20060;-70
2022/06/16 08:45:55;;;;;;;6.50;4.13;;;;;;;21.39;42.36;100133.44;4985041;28;20056;-70
2022/06/16 08:48:28;;;;;;;11.13;3.88;;;;;;;21.52;42.46;100129.66;4985299;28;20061;-71
2022/06/16 08:51:00;;;;;;;9.90;5.03;;;;;;;21.91;41.14;100127.03;4984691;28;20050;-70
2022/06/16 08:53:57;;;;;;;9.70;4.47;;;;;;;22.11;40.80;100131.41;4966545;28;20051;-71
2022/06/16 08:56:34;;;;;;;7.03;4.75;;;;;;;21.94;40.56;100134.81;4969458;28;20106;-70
2022/06/16 08:59:09;;;;;;;7.72;4.53;;;;;;;22.09;40.76;100136.91;4961935;28;20058;-71
2022/06/16 09:01:41;;;;;;;7.05;4.68;;;;;;;22.42;40.12;100150.94;4970171;28;20121;-71
2022/06/16 09:04:11;;;;;;;10.10;4.25;;;;;;;22.90;37.35;100147.31;4966328;28;20069;-70
2022/06/16 09:06:50;;;;;;;9.82;4.72;;;;;;;23.00;36.74;100155.38;4976389;28;20042;-71
2022/06/16 09:12:26;;;;;;;6.72;4.47;;;;;;;23.21;37.28;100162.38;4981730;28;20112;-72
2022/06/16 09:15:13;;;;;;;7.57;4.70;;;;;;;23.49;37.51;100158.69;4984012;28;20185;-70
2022/06/16 09:17:52;;;;;;;9.52;4.55;;;;;;;24.18;36.28;100159.13;4984488;28;20054;-71
2022/06/16 09:20:28;;;;;;;7.90;4.32;;;;;;;24.79;35.47;100163.69;4985749;28;20145;-71
2022/06/16 09:23:10;;;;;;;6.60;3.92;;;;;;;25.31;34.34;100160.16;4975505;28;20056;-71
2022/06/16 09:25:51;;;;;;;7.00;4.85;;;;;;;25.74;33.35;100166.38;4973880;28;20167;-71
2022/06/16 09:28:25;;;;;;;8.02;4.80;;;;;;;26.49;32.03;100168.19;4973292;28;20141;-71
2022/06/16 09:30:56;;;;;;;13.18;4.70;;;;;;;27.31;30.73;100168.94;4984501;28;20532;-72
2022/06/16 09:33:28;;;;;;;6.15;3.97;;;;;;;28.12;27.93;100172.28;4984146;28;20050;-70
2022/06/16 09:36:00;;;;;;;6.10;3.15;;;;;;;28.63;27.81;100167.16;4979747;28;20042;-70
2022/06/16 09:38:33;;;;;;;7.20;4.10;;;;;;;29.13;27.19;100172.94;4984193;28;20062;-72
2022/06/16 09:41:05;;;;;;;6.50;3.87;;;;;;;29.40;25.56;100192.34;4985178;28;20053;-72
2022/06/16 09:43:38;;;;;;;6.68;3.05;;;;;;;29.47;24.84;100185.97;4984122;28;20057;-72
2022/06/16 09:46:10;;;;;;;8.32;3.70;;;;;;;29.52;24.94;100190.81;4984469;28;20050;-72
2022/06/16 09:48:43;;;;;;;10.52;3.97;;;;;;;29.19;25.05;100193.06;4984671;28;20042;-71
2022/06/16 09:51:15;;;;;;;4.68;3.33;;;;;;;28.97;23.88;100192.94;4983018;28;20621;-71
2022/06/16 09:53:47;;;;;;;5.95;3.15;;;;;;;29.00;22.90;100197.16;4976123;28;20066;-71
2022/06/16 09:56:21;;;;;;;4.60;3.25;;;;;;;29.84;23.50;100191.47;4967494;28;20047;-72
2022/06/16 09:58:52;;;;;;;6.95;3.15;;;;;;;30.39;22.28;100181.81;4969549;28;20125;-71
2022/06/16 10:01:21;;;;;;;4.15;3.10;;;;;;;30.73;21.98;100180.22;4966860;28;20062;-73
2022/06/16 10:03:56;;;;;;;5.78;3.28;;;;;;;30.81;21.77;100188.22;4974924;28;20351;-71
2022/06/16 10:06:31;;;;;;;6.20;2.90;;;;;;;30.99;21.98;100179.63;4968583;28;20055;-71
2022/06/16 10:09:07;;;;;;;9.15;3.58;;;;;;;31.09;21.88;100180.09;4968885;28;20065;-72
2022/06/16 10:11:44;;;;;;;8.90;3.63;;;;;;;30.20;22.42;100177.84;4969097;28;20054;-72
2022/06/16 10:14:19;;;;;;;5.55;3.05;;;;;;;29.46;23.02;100178.84;4985051;28;20060;-71
2022/06/16 10:17:00;;;;;;;4.43;2.83;;;;;;;30.33;22.54;100183.44;4987792;28;20054;-71
2022/06/16 10:19:29;;;;;;;5.35;2.55;;;;;;;30.93;21.69;100173.06;4988642;28;20082;-72
2022/06/16 10:21:57;;;;;;;5.10;2.80;;;;;;;31.27;21.79;100171.41;4988287;28;20502;-71
2022/06/16 10:24:27;;;;;;;5.78;3.15;;;;;;;30.45;21.78;100177.50;4988518;28;20061;-71
2022/06/16 10:26:57;;;;;;;10.40;3.22;;;;;;;30.06;21.55;100176.88;4987982;28;20050;-71
2022/06/16 10:29:31;;;;;;;5.38;2.53;;;;;;;29.37;22.43;100179.13;4987691;28;20050;-72
2022/06/16 10:32:00;;;;;;;5.93;2.53;;;;;;;29.08;22.58;100186.25;4988022;28;20058;-71
2022/06/16 10:34:30;;;;;;;5.10;2.80;;;;;;;29.65;22.16;100182.00;4987883;28;20056;-71
2022/06/16 10:37:02;;;;;;;6.30;2.90;;;;;;;30.16;22.04;100190.97;4987929;28;20493;-71
2022/06/16 10:39:43;;;;;;;6.55;3.10;;;;;;;30.22;21.76;100194.78;4990419;28;20049;-72
2022/06/16 10:42:17;;;;;;;5.93;2.80;;;;;;;31.05;20.98;100205.22;4969982;28;20066;-72
2022/06/16 10:44:48;;;;;;;;;;;;;;;31.32;19.87;100196.16;4972379;28;20058;-71
2022/06/16 10:47:22;;;;;;;4.03;2.53;;;;;;;30.93;20.60;100202.19;4979367;28;19985;-71
2022/06/16 10:49:50;;;;;;;5.47;2.22;;;;;;;30.28;20.69;100198.66;4984489;28;20047;-71
2022/06/16 10:52:27;;;;;;;9.35;2.72;;;;;;;29.72;21.49;100200.09;4983389;28;20055;-70
2022/06/16 10:55:00;;;;;;;5.13;2.28;;;;;;;29.90;21.21;100198.84;4958660;28;20539;-70
2022/06/16 10:57:30;;;;;;;5.55;3.60;;;;;;;30.01;21.42;100194.81;4953908;28;20142;-70
2022/06/16 11:00:07;;;;;;;4.80;2.35;;;;;;;29.43;21.67;100197.38;4963608;28;20149;-70
2022/06/16 11:02:36;;;;;;;5.45;2.20;;;;;;;28.68;22.76;100188.31;4965229;28;20061;-70
2022/06/16 11:05:10;;;;;;;3.58;2.05;;;;;;;27.84;23.43;100182.78;4985037;28;20057;-70
2022/06/16 11:07:39;;;;;;;4.55;2.33;;;;;;;27.35;24.46;100183.00;4987298;28;20589;-70
2022/06/16 11:10:09;;;;;;;5.88;3.60;;;;;;;26.44;25.34;100182.22;4988513;28;20100;-69
2022/06/16 11:12:39;;;;;;;5.03;2.58;;;;;;;25.56;26.20;100187.25;4987839;28;20068;-69
2022/06/16 11:15:22;;;;;;;4.68;2.60;;;;;;;25.26;26.41;100186.78;4961241;28;20118;-71
2022/06/16 11:17:53;;;;;;;5.07;2.90;;;;;;;24.86;26.82;100188.19;4967529;28;20050;-70
2022/06/16 11:20:30;;;;;;;5.63;2.25;;;;;;;24.92;26.58;100200.19;4968347;28;20051;-69
2022/06/16 11:22:58;;;;;;;4.13;2.30;;;;;;;24.88;27.21;100201.50;4968592;28;20285;-68
2022/06/16 11:25:30;;;;;;;3.35;2.00;;;;;;;24.79;27.74;100193.38;4971817;28;20057;-69
2022/06/16 11:28:00;;;;;;;6.20;2.30;;;;;;;24.94;28.13;100200.88;4971872;28;20043;-70
2022/06/16 11:30:38;;;;;;;4.72;2.55;;;;;;;25.14;28.32;100199.66;4966038;28;20122;-71
2022/06/16 11:33:07;;;;;;;5.13;2.20;;;;;;;25.40;27.59;100194.28;4985223;28;20073;-70
2022/06/16 11:35:45;;;;;;;7.38;3.42;;;;;;;25.31;27.64;100192.53;4969925;28;20042;-70
2022/06/16 11:38:19;;;;;;;4.00;2.00;;;;;;;25.04;27.69;100190.81;4963259;28;20050;-70
2022/06/16 11:40:52;;;;;;;4.50;2.60;;;;;;;25.22;27.95;100193.47;4976236;28;20046;-70
2022/06/16 11:43:35;;;;;;;4.95;2.70;;;;;;;25.40;27.99;100194.28;4961794;28;20051;-68
2022/06/16 11:46:08;;;;;;;7.35;2.58;;;;;;;25.53;27.68;100190.28;4952253;28;20058;-69
2022/06/16 11:48:46;;;;;;;3.35;2.33;;;;;;;25.30;27.57;100196.22;4952607;28;20423;-70
2022/06/16 11:51:22;;;;;;;4.70;2.72;;;;;;;25.34;27.83;100188.66;4952320;28;20138;-71
2022/06/16 11:54:03;;;;;;;3.53;2.22;;;;;;;25.34;28.32;100186.81;4964496;28;20053;-69
2022/06/16 11:56:38;;;;;;;7.57;2.40;;;;;;;25.39;27.78;100181.75;4971170;28;20069;-71
2022/06/16 11:59:29;;;;;;;5.25;2.20;;;;;;;25.30;27.86;100188.13;4971869;28;20475;-70
2022/06/16 12:02:08;;;;;;;3.65;2.25;;;;;;;25.18;28.67;100184.88;4971248;28;20065;-70